Time,TemperatureF,DewpointF,PressureIn,WindDirection,WindDirectionDegrees,WindSpeedMPH,WindSpeedGustMPH,Humidity,HourlyPrecipIn,Conditions,Clouds,dailyrainin,SoftwareType,DateUTC
2013-03-05 00:07:00,40.0,18.0,30.00,WSW,258,2.0,6.0,42,0.00,,,0.00,weatherlink.com 1.10,2013-03-05 07:07:00,
2013-03-05 00:22:00,40.7,20.0,30.01,SSW,205,5.0,6.0,43,0.00,,,0.00,weatherlink.com 1.10,2013-03-05 07:22:00,
2013-03-05 00:37:00,41.3,20.0,30.01,SSW,209,2.0,3.0,42,0.00,,,0.00,weatherlink.com 1.10,2013-03-05 07:37:00,
2013-03-05 00:52:00,41.0,20.0,30.02,SSW,207,1.0,4.0,44,0.00,,,0.00,weatherlink.com 1.10,2013-03-05 07:52:00,
2013-03-05 01:07:00,38.4,20.0,30.04,WSW,252,3.0,7.0,47,0.00,,,0.00,weatherlink.com 1.10,2013-03-05 08:07:00,
2013-03-05 01:22:00,38.6,19.0,30.05,WSW,252,2.0,6.0,45,0.00,,,0.00,weatherlink.com 1.10,2013-03-05 08:22:00,
2013-03-05 01:37:00,37.5,19.0,30.06,WNW,294,5.0,6.0,47,0.00,,,0.00,weatherlink.com 1.10,2013-03-05 08:37:00,
2013-03-05 01:52:00,37.4,19.0,30.06,WNW,286,3.0,5.0,48,0.00,,,0.00,weatherlink.com 1.10,2013-03-05 08:52:00,
2013-03-05 02:07:00,39.2,19.0,30.07,SSE,148,3.0,4.0,45,0.00,,,0.00,weatherlink.com 1.10,2013-03-05 09:07:00,
2013-03-05 02:22:00,38.0,19.0,30.07,SE,146,1.0,3.0,47,0.00,,,0.00,weatherlink.com 1.10,2013-03-05 09:22:00,
2013-03-05 02:37:00,37.7,19.0,30.07,SE,146,2.0,4.0,48,0.00,,,0.00,weatherlink.com 1.10,2013-03-05 09:37:00,
2013-03-05 02:52:00,38.4,20.0,30.07,SE,146,3.0,3.0,47,0.00,,,0.00,weatherlink.com 1.10,2013-03-05 09:52:00,
2013-03-05 03:07:00,38.8,19.0,30.07,SE,146,0.0,4.0,45,0.00,,,0.00,weatherlink.com 1.10,2013-03-05 10:07:00,
2013-03-05 03:22:00,38.2,20.0,30.09,NNE,33,6.0,9.0,48,0.00,,,0.00,weatherlink.com 1.10,2013-03-05 10:22:00,
2013-03-05 03:37:00,35.6,19.0,30.10,NE,40,6.0,11.0,52,0.00,,,0.00,weatherlink.com 1.10,2013-03-05 10:37:00,
2013-03-05 03:52:00,34.0,20.0,30.12,NE,44,3.0,10.0,56,0.00,,,0.00,weatherlink.com 1.10,2013-03-05 10:52:00,
2013-03-05 04:07:00,33.2,20.0,30.12,NNE,30,3.0,6.0,59,0.00,,,0.00,weatherlink.com 1.10,2013-03-05 11:07:00,
2013-03-05 04:22:00,32.6,20.0,30.13,NNE,32,6.0,8.0,61,0.00,,,0.00,weatherlink.com 1.10,2013-03-05 11:22:00,
2013-03-05 04:37:00,32.2,22.0,30.14,NNE,22,8.0,8.0,65,0.00,,,0.00,weatherlink.com 1.10,2013-03-05 11:37:00,
2013-03-05 04:53:00,32.1,21.0,30.16,NNE,17,2.0,5.0,63,0.00,,,0.00,weatherlink.com 1.10,2013-03-05 11:53:00,
2013-03-05 05:08:00,32.6,22.0,30.16,NNE,17,2.0,3.0,64,0.00,,,0.00,weatherlink.com 1.10,2013-03-05 12:08:00,
2013-03-05 05:23:00,32.1,21.0,30.17,NNE,33,6.0,7.0,63,0.00,,,0.00,weatherlink.com 1.10,2013-03-05 12:23:00,
2013-03-05 05:38:00,31.1,21.0,30.18,NE,36,8.0,10.0,66,0.00,,,0.00,weatherlink.com 1.10,2013-03-05 12:38:00,
2013-03-05 05:53:00,31.7,21.0,30.19,NNE,20,8.0,11.0,66,0.00,,,0.00,weatherlink.com 1.10,2013-03-05 12:53:00,
2013-03-05 06:08:00,32.0,23.0,30.20,NNE,26,8.0,12.0,69,0.00,,,0.00,weatherlink.com 1.10,2013-03-05 13:08:00,
2013-03-05 06:23:00,30.7,21.0,30.20,NNE,21,7.0,12.0,67,0.00,,,0.00,weatherlink.com 1.10,2013-03-05 13:23:00,
2013-03-05 06:38:00,30.4,21.0,30.21,NNE,29,8.0,10.0,68,0.00,,,0.00,weatherlink.com 1.10,2013-03-05 13:38:00,
2013-03-05 06:53:00,30.5,21.0,30.22,NE,34,11.0,11.0,69,0.00,,,0.00,weatherlink.com 1.10,2013-03-05 13:53:00,
2013-03-05 07:08:00,31.2,22.0,30.21,NE,37,9.0,16.0,68,0.00,,,0.00,weatherlink.com 1.10,2013-03-05 14:08:00,
2013-03-05 07:23:00,32.2,22.0,30.23,NNE,27,6.0,15.0,65,0.00,,,0.00,weatherlink.com 1.10,2013-03-05 14:23:00,
2013-03-05 07:38:00,33.0,22.0,30.23,NNE,32,13.0,15.0,63,0.00,,,0.00,weatherlink.com 1.10,2013-03-05 14:38:00,
2013-03-05 07:53:00,33.3,21.0,30.24,NE,41,11.0,19.0,62,0.00,,,0.00,weatherlink.com 1.10,2013-03-05 14:53:00,
2013-03-05 08:08:00,33.8,21.0,30.24,NNE,21,14.0,19.0,61,0.00,,,0.00,weatherlink.com 1.10,2013-03-05 15:08:00,
2013-03-05 08:23:00,34.8,22.0,30.24,NNE,25,14.0,19.0,59,0.00,,,0.00,weatherlink.com 1.10,2013-03-05 15:23:00,
2013-03-05 08:38:00,35.6,22.0,30.24,NNE,22,12.0,19.0,57,0.00,,,0.00,weatherlink.com 1.10,2013-03-05 15:38:00,
2013-03-05 08:53:00,37.0,22.0,30.25,North,5,10.0,19.0,56,0.00,,,0.00,weatherlink.com 1.10,2013-03-05 15:53:00,
2013-03-05 09:08:00,37.9,22.0,30.26,ENE,61,8.0,18.0,53,0.00,,,0.00,weatherlink.com 1.10,2013-03-05 16:08:00,
2013-03-05 09:23:00,39.2,22.0,30.27,NNE,19,10.0,15.0,50,0.00,,,0.00,weatherlink.com 1.10,2013-03-05 16:23:00,
2013-03-05 09:38:00,39.9,21.0,30.27,North,360,11.0,13.0,48,0.00,,,0.00,weatherlink.com 1.10,2013-03-05 16:38:00,
2013-03-05 09:53:00,40.8,21.0,30.27,NE,46,6.0,12.0,46,0.00,,,0.00,weatherlink.com 1.10,2013-03-05 16:53:00,
2013-03-05 10:08:00,41.6,22.0,30.27,NNE,24,6.0,10.0,46,0.00,,,0.00,weatherlink.com 1.10,2013-03-05 17:08:00,
2013-03-05 10:23:00,42.5,22.0,30.26,NNE,24,7.0,10.0,44,0.00,,,0.00,weatherlink.com 1.10,2013-03-05 17:23:00,
2013-03-05 10:38:00,43.6,22.0,30.26,NNE,17,8.0,10.0,42,0.00,,,0.00,weatherlink.com 1.10,2013-03-05 17:38:00,
2013-03-05 10:53:00,44.9,22.0,30.25,NE,52,9.0,10.0,40,0.00,,,0.00,weatherlink.com 1.10,2013-03-05 17:53:00,
2013-03-05 11:08:00,46.1,22.0,30.25,ENE,57,3.0,9.0,38,0.00,,,0.00,weatherlink.com 1.10,2013-03-05 18:08:00,
2013-03-05 11:23:00,47.8,22.0,30.24,ENE,71,8.0,8.0,36,0.00,,,0.00,weatherlink.com 1.10,2013-03-05 18:23:00,
2013-03-05 11:38:00,48.3,21.0,30.24,ENE,61,3.0,7.0,34,0.00,,,0.00,weatherlink.com 1.10,2013-03-05 18:38:00,
2013-03-05 11:54:00,50.1,21.0,30.23,NE,46,2.0,4.0,32,0.00,,,0.00,weatherlink.com 1.10,2013-03-05 18:54:00,
2013-03-05 12:09:00,51.2,21.0,30.23,East,92,3.0,9.0,30,0.00,,,0.00,weatherlink.com 1.10,2013-03-05 19:09:00,
2013-03-05 12:24:00,52.4,19.0,30.22,SE,126,0.0,6.0,27,0.00,,,0.00,weatherlink.com 1.10,2013-03-05 19:24:00,
2013-03-05 12:39:00,53.9,19.0,30.21,SSE,159,3.0,8.0,25,0.00,,,0.00,weatherlink.com 1.10,2013-03-05 19:39:00,
2013-03-05 12:54:00,55.7,18.0,30.21,SSE,164,2.0,9.0,23,0.00,,,0.00,weatherlink.com 1.10,2013-03-05 19:54:00,
2013-03-05 13:09:00,56.0,17.0,30.19,WSW,238,6.0,10.0,22,0.00,,,0.00,weatherlink.com 1.10,2013-03-05 20:09:00,
2013-03-05 13:24:00,55.2,17.0,30.18,SSW,209,5.0,7.0,22,0.00,,,0.00,weatherlink.com 1.10,2013-03-05 20:24:00,
2013-03-05 13:39:00,56.6,17.0,30.18,SSW,196,2.0,7.0,21,0.00,,,0.00,weatherlink.com 1.10,2013-03-05 20:39:00,
2013-03-05 13:54:00,58.6,16.0,30.17,SSW,194,5.0,10.0,19,0.00,,,0.00,weatherlink.com 1.10,2013-03-05 20:54:00,
2013-03-05 14:09:00,57.7,17.0,30.16,SSW,201,6.0,14.0,20,0.00,,,0.00,weatherlink.com 1.10,2013-03-05 21:09:00,
2013-03-05 14:24:00,57.9,17.0,30.15,WSW,251,4.0,10.0,20,0.00,,,0.00,weatherlink.com 1.10,2013-03-05 21:24:00,
2013-03-05 14:39:00,59.3,17.0,30.15,SSW,207,7.0,14.0,19,0.00,,,0.00,weatherlink.com 1.10,2013-03-05 21:39:00,
2013-03-05 14:54:00,59.7,17.0,30.14,SW,228,4.0,11.0,19,0.00,,,0.00,weatherlink.com 1.10,2013-03-05 21:54:00,
2013-03-05 15:09:00,60.0,16.0,30.14,South,182,8.0,13.0,18,0.00,,,0.00,weatherlink.com 1.10,2013-03-05 22:09:00,
2013-03-05 15:24:00,59.2,14.0,30.14,SW,235,8.0,13.0,17,0.00,,,0.00,weatherlink.com 1.10,2013-03-05 22:24:00,
2013-03-05 15:39:00,59.5,13.0,30.13,SW,222,7.0,19.0,16,0.00,,,0.00,weatherlink.com 1.10,2013-03-05 22:39:00,
2013-03-05 15:54:00,59.7,10.0,30.13,SW,215,14.0,15.0,14,0.00,,,0.00,weatherlink.com 1.10,2013-03-05 22:54:00,
2013-03-05 16:09:00,59.7,9.0,30.13,South,186,7.0,14.0,13,0.00,,,0.00,weatherlink.com 1.10,2013-03-05 23:09:00,
2013-03-05 16:24:00,60.3,7.0,30.13,South,190,11.0,11.0,12,0.00,,,0.00,weatherlink.com 1.10,2013-03-05 23:24:00,
2013-03-05 16:39:00,60.3,7.0,30.12,South,188,8.0,12.0,12,0.00,,,0.00,weatherlink.com 1.10,2013-03-05 23:39:00,
2013-03-05 16:54:00,60.5,9.0,30.12,SSE,159,4.0,11.0,13,0.00,,,0.00,weatherlink.com 1.10,2013-03-05 23:54:00,
2013-03-05 17:09:00,60.2,11.0,30.11,South,190,6.0,10.0,14,0.00,,,0.00,weatherlink.com 1.10,2013-03-06 00:09:00,
2013-03-05 17:24:00,59.5,12.0,30.11,South,180,7.0,10.0,15,0.00,,,0.00,weatherlink.com 1.10,2013-03-06 00:24:00,
2013-03-05 17:39:00,58.7,12.0,30.12,South,190,3.0,9.0,16,0.00,,,0.00,weatherlink.com 1.10,2013-03-06 00:39:00,
2013-03-05 17:54:00,58.0,12.0,30.12,SSW,195,4.0,7.0,16,0.00,,,0.00,weatherlink.com 1.10,2013-03-06 00:54:00,
2013-03-05 18:09:00,57.3,11.0,30.12,SSW,198,2.0,5.0,16,0.00,,,0.00,weatherlink.com 1.10,2013-03-06 01:09:00,
2013-03-05 18:24:00,57.0,11.0,30.12,SSW,202,0.0,4.0,16,0.00,,,0.00,weatherlink.com 1.10,2013-03-06 01:24:00,
2013-03-05 18:39:00,56.0,10.0,30.12,SSW,202,2.0,2.0,16,0.00,,,0.00,weatherlink.com 1.10,2013-03-06 01:39:00,
2013-03-05 18:54:00,54.5,9.0,30.13,SSW,202,2.0,2.0,16,0.00,,,0.00,weatherlink.com 1.10,2013-03-06 01:54:00,
2013-03-05 19:09:00,51.7,8.0,30.13,SSW,202,2.0,3.0,17,0.00,,,0.00,weatherlink.com 1.10,2013-03-06 02:09:00,
2013-03-05 19:24:00,50.4,7.0,30.14,SSW,202,2.0,3.0,17,0.00,,,0.00,weatherlink.com 1.10,2013-03-06 02:24:00,
2013-03-05 19:39:00,50.4,7.0,30.14,WSW,249,4.0,6.0,17,0.00,,,0.00,weatherlink.com 1.10,2013-03-06 02:39:00,
2013-03-05 19:54:00,49.6,7.0,30.14,WSW,257,3.0,5.0,18,0.00,,,0.00,weatherlink.com 1.10,2013-03-06 02:54:00,
2013-03-05 20:09:00,51.8,12.0,30.15,SW,221,0.0,6.0,20,0.00,,,0.00,weatherlink.com 1.10,2013-03-06 03:09:00,
2013-03-05 20:24:00,51.1,10.0,30.15,SW,221,1.0,2.0,19,0.00,,,0.00,weatherlink.com 1.10,2013-03-06 03:24:00,
2013-03-05 20:39:00,51.1,11.0,30.15,SW,221,1.0,3.0,20,0.00,,,0.00,weatherlink.com 1.10,2013-03-06 03:39:00,
2013-03-05 20:54:00,51.2,13.0,30.16,SW,230,4.0,5.0,22,0.00,,,0.00,weatherlink.com 1.10,2013-03-06 03:54:00,
2013-03-05 21:09:00,49.2,13.0,30.16,WSW,256,5.0,6.0,23,0.00,,,0.00,weatherlink.com 1.10,2013-03-06 04:09:00,
2013-03-05 21:24:00,48.8,13.0,30.16,West,261,4.0,7.0,24,0.00,,,0.00,weatherlink.com 1.10,2013-03-06 04:24:00,
2013-03-05 21:39:00,48.7,14.0,30.16,West,261,0.0,4.0,25,0.00,,,0.00,weatherlink.com 1.10,2013-03-06 04:39:00,
2013-03-05 21:54:00,49.6,15.0,30.17,West,263,3.0,4.0,25,0.00,,,0.00,weatherlink.com 1.10,2013-03-06 04:54:00,
2013-03-05 22:09:00,48.2,12.0,30.17,NE,34,3.0,7.0,23,0.00,,,0.00,weatherlink.com 1.10,2013-03-06 05:09:00,
2013-03-05 22:24:00,48.2,14.0,30.17,NNE,33,3.0,4.0,25,0.00,,,0.00,weatherlink.com 1.10,2013-03-06 05:24:00,
2013-03-05 22:39:00,48.4,14.0,30.17,NE,34,1.0,2.0,25,0.00,,,0.00,weatherlink.com 1.10,2013-03-06 05:39:00,
2013-03-05 22:54:00,47.7,11.0,30.17,NE,35,1.0,3.0,23,0.00,,,0.00,weatherlink.com 1.10,2013-03-06 05:54:00,
2013-03-05 23:09:00,47.0,12.0,30.17,NNE,33,0.0,3.0,24,0.00,,,0.00,weatherlink.com 1.10,2013-03-06 06:09:00,
2013-03-05 23:24:00,46.8,12.0,30.17,NNE,33,0.0,3.0,24,0.00,,,0.00,weatherlink.com 1.10,2013-03-06 06:24:00,
2013-03-05 23:39:00,46.3,11.0,30.16,NNE,32,2.0,4.0,24,0.00,,,0.00,weatherlink.com 1.10,2013-03-06 06:39:00,
2013-03-05 23:54:00,45.5,10.0,30.16,NNE,31,4.0,6.0,24,0.00,,,0.00,weatherlink.com 1.10,2013-03-06 06:54:00,